createdAt,value
2019-05-20T00:00:40.742Z,20.77
2019-05-20T00:01:46.287Z,18.83
2019-05-20T00:02:51.447Z,21.03
2019-05-20T00:03:57.017Z,16.50
2019-05-20T00:05:01.921Z,22.37
2019-05-20T00:06:07.846Z,22.37
2019-05-20T00:07:13.516Z,19.20
2019-05-20T00:08:18.961Z,22.87
2019-05-20T00:09:24.115Z,25.20
2019-05-20T00:10:29.743Z,30.67
2019-05-20T00:11:34.864Z,32.90
2019-05-20T00:12:40.609Z,39.57
2019-05-20T00:13:45.528Z,38.47
2019-05-20T00:14:50.913Z,32.07
2019-05-20T00:15:55.902Z,35.37
2019-05-20T00:17:01.364Z,36.97
2019-05-20T00:18:06.420Z,44.93
2019-05-20T00:19:11.796Z,45.83
2019-05-20T00:20:16.726Z,49.43
2019-05-20T00:21:22.314Z,51.03
2019-05-20T00:22:27.196Z,44.77
2019-05-20T00:23:32.572Z,51.17
2019-05-20T00:24:37.692Z,45.93
2019-05-20T00:25:43.345Z,45.37
2019-05-20T00:26:48.219Z,43.47
2019-05-20T00:27:53.732Z,38.63
2019-05-20T00:28:58.837Z,40.43
2019-05-20T00:30:04.741Z,36.17
2019-05-20T00:31:09.597Z,36.03
2019-05-20T00:32:15.121Z,33.83
2019-05-20T00:33:20.020Z,33.13
2019-05-20T00:34:34.649Z,28.40
2019-05-20T00:35:32.128Z,25.07
2019-05-20T00:36:37.627Z,30.90
2019-05-20T00:37:42.598Z,29.03
2019-05-20T00:39:06.527Z,26.43
2019-05-20T00:40:11.807Z,29.57
2019-05-20T00:41:17.292Z,25.57
2019-05-20T00:42:25.181Z,25.13
2019-05-20T00:43:30.680Z,24.50
2019-05-20T00:44:35.553Z,25.47
2019-05-20T00:45:41.127Z,25.03
2019-05-20T00:46:46.372Z,27.60
2019-05-20T00:47:51.793Z,27.07
2019-05-20T00:48:56.762Z,26.37
2019-05-20T00:50:02.922Z,28.60
2019-05-20T00:51:07.804Z,27.90
2019-05-20T00:52:13.591Z,29.53
2019-05-20T00:53:18.531Z,27.03
2019-05-20T00:54:24.095Z,24.10
2019-05-20T00:55:32.223Z,22.80
2019-05-20T00:56:38.232Z,21.10
2019-05-20T00:57:43.248Z,21.43
2019-05-20T00:58:48.607Z,22.70
2019-05-20T00:59:53.595Z,22.07
2019-05-20T01:00:58.927Z,19.93
2019-05-20T01:02:03.768Z,20.27
2019-05-20T01:03:09.328Z,18.90
2019-05-20T01:04:14.283Z,13.27
2019-05-20T01:05:20.227Z,16.83
2019-05-20T01:06:25.357Z,17.63
2019-05-20T01:07:30.903Z,18.53
2019-05-20T01:08:35.688Z,20.03
2019-05-20T01:09:41.207Z,17.87
2019-05-20T01:10:46.372Z,18.07
2019-05-20T01:11:51.944Z,22.43
2019-05-20T01:12:56.848Z,21.47
2019-05-20T01:14:02.273Z,24.43
2019-05-20T01:15:07.516Z,23.17
2019-05-20T01:16:12.845Z,24.33
2019-05-20T01:17:17.697Z,23.20
2019-05-20T01:18:23.254Z,23.27
2019-05-20T01:19:28.225Z,24.10
2019-05-20T01:20:33.605Z,34.37
2019-05-20T01:21:38.479Z,27.83
2019-05-20T01:22:44.263Z,22.07
2019-05-20T01:23:49.175Z,22.00
2019-05-20T01:24:54.576Z,25.57
2019-05-20T01:25:59.371Z,23.37
2019-05-20T01:27:04.937Z,25.33
2019-05-20T01:28:09.999Z,20.33
2019-05-20T01:29:15.377Z,27.20
2019-05-20T01:30:20.728Z,21.53
2019-05-20T01:31:26.423Z,21.27
2019-05-20T01:32:31.253Z,22.40
2019-05-20T01:33:36.584Z,19.83
2019-05-20T01:34:41.519Z,22.37
2019-05-20T01:35:46.980Z,24.87
2019-05-20T01:36:51.855Z,21.90
2019-05-20T01:37:57.287Z,21.20
2019-05-20T01:39:02.259Z,19.27
2019-05-20T01:40:08.832Z,16.50
2019-05-20T01:41:13.720Z,18.23
2019-05-20T01:42:19.183Z,17.73
2019-05-20T01:43:24.267Z,18.70
2019-05-20T01:44:29.713Z,17.53
2019-05-20T01:45:34.716Z,19.50
2019-05-20T01:46:40.077Z,21.00
2019-05-20T01:47:44.988Z,30.80
2019-05-20T01:48:50.471Z,24.17
2019-05-20T01:49:55.441Z,18.87
2019-05-20T01:51:00.774Z,18.80
2019-05-20T01:52:05.767Z,18.17
2019-05-20T01:53:11.331Z,18.30
2019-05-20T01:54:16.134Z,21.30
2019-05-20T01:55:21.707Z,17.07
2019-05-20T01:56:26.607Z,23.97
2019-05-20T01:57:31.928Z,21.97
2019-05-20T01:58:39.048Z,27.77
2019-05-20T01:59:43.801Z,18.93
2019-05-20T02:00:48.740Z,20.90
2019-05-20T02:01:54.067Z,17.60
2019-05-20T02:02:59.000Z,18.07
2019-05-20T02:04:04.535Z,18.27
2019-05-20T02:05:09.537Z,19.30
2019-05-20T02:06:14.836Z,30.53
2019-05-20T02:07:19.850Z,16.80
2019-05-20T02:08:25.260Z,17.33
2019-05-20T02:09:30.067Z,19.67
2019-05-20T02:10:35.612Z,23.37
2019-05-20T02:11:40.484Z,22.40
2019-05-20T02:12:45.943Z,19.30
2019-05-20T02:13:57.627Z,21.60
2019-05-20T02:15:09.292Z,22.93
2019-05-20T02:16:14.200Z,60.83
2019-05-20T02:17:19.504Z,21.37
2019-05-20T02:18:24.415Z,18.17
2019-05-20T02:19:29.891Z,15.07
2019-05-20T02:20:34.791Z,56.03
2019-05-20T02:21:40.150Z,32.47
2019-05-20T02:22:45.170Z,13.63
2019-05-20T02:23:50.704Z,21.50
2019-05-20T02:24:55.508Z,35.37
2019-05-20T02:26:00.962Z,96.73
2019-05-20T02:27:05.881Z,175.93
2019-05-20T02:28:11.432Z,67.43
2019-05-20T02:29:16.398Z,27.13
2019-05-20T02:30:21.995Z,16.33
2019-05-20T02:31:26.885Z,16.20
2019-05-20T02:32:32.228Z,50.67
2019-05-20T02:33:50.714Z,15.13
2019-05-20T02:34:44.304Z,14.00
2019-05-20T02:35:49.451Z,17.17
2019-05-20T02:36:54.782Z,11.47
2019-05-20T02:37:59.789Z,92.67
2019-05-20T02:39:06.575Z,52.70
2019-05-20T02:40:12.761Z,12.50
2019-05-20T02:41:18.385Z,24.07
2019-05-20T02:42:23.259Z,18.67
2019-05-20T02:43:29.021Z,41.23
2019-05-20T02:44:33.899Z,55.37
2019-05-20T02:45:39.237Z,23.80
2019-05-20T02:46:44.013Z,28.87
2019-05-20T02:47:49.339Z,23.67
2019-05-20T02:48:54.239Z,22.37
2019-05-20T02:49:59.693Z,17.37
2019-05-20T02:51:04.627Z,29.30
2019-05-20T02:52:10.273Z,32.63
2019-05-20T02:53:15.151Z,48.97
2019-05-20T02:54:20.627Z,30.63
2019-05-20T02:55:25.792Z,58.90
2019-05-20T02:56:31.505Z,38.57
2019-05-20T02:57:36.260Z,22.77
2019-05-20T02:58:41.592Z,63.97
2019-05-20T02:59:46.350Z,48.43
2019-05-20T03:00:51.762Z,17.67
2019-05-20T03:01:56.570Z,19.30
2019-05-20T03:03:01.996Z,16.80
2019-05-20T03:04:12.721Z,19.43
2019-05-20T03:05:14.057Z,20.83
2019-05-20T03:06:18.832Z,18.73
2019-05-20T03:07:24.430Z,20.77
2019-05-20T03:08:29.209Z,40.93
2019-05-20T03:09:34.569Z,24.93
2019-05-20T03:10:39.447Z,22.83
2019-05-20T03:11:45.047Z,19.83
2019-05-20T03:12:49.969Z,20.20
2019-05-20T03:13:55.464Z,16.70
2019-05-20T03:15:00.257Z,17.33
2019-05-20T03:16:05.745Z,19.90
2019-05-20T03:17:10.560Z,29.07
2019-05-20T03:18:15.999Z,63.67
2019-05-20T03:19:20.798Z,18.83
2019-05-20T03:20:26.253Z,108.00
2019-05-20T03:21:31.057Z,30.27
2019-05-20T03:22:36.442Z,24.63
2019-05-20T03:23:41.349Z,19.70
2019-05-20T03:24:46.662Z,15.47
2019-05-20T03:25:51.591Z,30.90
2019-05-20T03:26:57.014Z,20.03
2019-05-20T03:28:01.830Z,18.97
2019-05-20T03:29:07.269Z,20.63
2019-05-20T03:30:14.852Z,44.77
2019-05-20T03:31:20.709Z,63.17
2019-05-20T03:32:25.582Z,25.17
2019-05-20T03:33:31.069Z,18.23
2019-05-20T03:34:47.653Z,38.33
2019-05-20T03:35:42.981Z,21.87
2019-05-20T03:36:47.804Z,22.17
2019-05-20T03:37:53.253Z,27.63
2019-05-20T03:38:58.061Z,37.63
2019-05-20T03:40:03.620Z,23.97
2019-05-20T03:41:08.374Z,31.53
2019-05-20T03:42:13.886Z,23.27
2019-05-20T03:43:18.776Z,74.67
2019-05-20T03:44:24.140Z,28.67
2019-05-20T03:45:28.991Z,19.83
2019-05-20T03:46:34.529Z,19.63
2019-05-20T03:47:39.330Z,18.43
2019-05-20T03:48:44.669Z,22.90
2019-05-20T03:49:49.601Z,26.93
2019-05-20T03:50:55.194Z,26.13
2019-05-20T03:52:00.030Z,28.60
2019-05-20T03:53:05.410Z,26.67
2019-05-20T03:54:10.284Z,27.57
2019-05-20T03:55:15.774Z,31.93
2019-05-20T03:56:20.691Z,31.17
2019-05-20T03:57:26.135Z,30.77
2019-05-20T03:58:30.957Z,34.33
2019-05-20T03:59:36.374Z,30.30
2019-05-20T04:00:45.786Z,31.33
2019-05-20T04:01:51.184Z,34.50
2019-05-20T04:02:55.997Z,32.33
2019-05-20T04:04:01.392Z,29.93
2019-05-20T04:05:06.696Z,37.27
2019-05-20T04:06:12.085Z,30.50
2019-05-20T04:07:16.931Z,29.47
2019-05-20T04:08:22.465Z,31.00
2019-05-20T04:09:27.248Z,27.60
2019-05-20T04:10:32.688Z,28.20
2019-05-20T04:11:37.641Z,28.87
2019-05-20T04:12:43.303Z,23.60
2019-05-20T04:13:48.234Z,24.93
2019-05-20T04:14:53.717Z,24.97
2019-05-20T04:15:58.713Z,28.37
2019-05-20T04:17:04.067Z,26.33
2019-05-20T04:18:09.365Z,28.13
2019-05-20T04:19:14.901Z,27.17
2019-05-20T04:20:19.935Z,26.17
2019-05-20T04:21:25.694Z,27.10
2019-05-20T04:22:30.669Z,25.40
2019-05-20T04:23:36.463Z,26.10
2019-05-20T04:24:41.324Z,22.90
2019-05-20T04:25:46.874Z,21.73
2019-05-20T15:49:06.591Z,11.07
2019-05-20T15:50:12.687Z,10.80
2019-05-20T15:51:17.554Z,10.60
2019-05-20T15:52:23.102Z,11.27
2019-05-20T15:53:28.155Z,9.47
2019-05-20T15:54:33.640Z,10.80
2019-05-20T15:55:39.767Z,9.43
2019-05-20T15:56:45.247Z,11.30
2019-05-20T15:57:50.151Z,11.10
2019-05-20T15:58:55.910Z,12.10
2019-05-20T16:00:00.810Z,11.03
2019-05-20T16:01:06.539Z,10.10
2019-05-20T16:02:11.729Z,11.97
2019-05-20T16:03:17.281Z,14.20
2019-05-20T16:04:22.245Z,10.57
2019-05-20T16:05:27.998Z,10.00
2019-05-20T16:06:33.128Z,9.50
2019-05-20T16:07:38.594Z,11.60
2019-05-20T16:08:43.562Z,12.37
2019-05-20T16:09:49.078Z,10.23
2019-05-20T16:10:53.905Z,11.13
2019-05-20T16:11:59.409Z,11.07
2019-05-20T16:13:04.455Z,9.77
2019-05-20T16:14:10.007Z,8.63
2019-05-20T16:15:15.314Z,10.70
2019-05-20T16:16:20.797Z,8.97
2019-05-20T16:17:25.869Z,10.70
2019-05-20T16:18:31.279Z,11.67
2019-05-20T16:19:36.409Z,14.63
2019-05-20T16:20:42.390Z,11.57
2019-05-20T16:21:48.086Z,12.57
2019-05-20T16:22:55.026Z,5.43
2019-05-20T16:24:00.039Z,6.17
2019-05-20T16:25:06.064Z,7.80
2019-05-20T16:26:11.321Z,4.90
2019-05-20T16:27:17.172Z,4.70
2019-05-20T16:28:22.162Z,6.13
2019-05-20T16:29:27.670Z,7.43
2019-05-20T16:30:32.811Z,4.13
2019-05-20T16:31:38.517Z,6.77
2019-05-20T16:32:43.781Z,7.73
2019-05-20T16:33:49.708Z,4.10
2019-05-20T16:34:54.747Z,8.33
2019-05-20T16:36:00.757Z,4.63
2019-05-20T16:37:06.020Z,5.13
2019-05-20T16:38:11.644Z,5.77
2019-05-20T16:39:16.979Z,6.27
2019-05-20T16:40:22.499Z,7.77
2019-05-20T16:41:27.673Z,6.43
2019-05-20T16:42:33.152Z,7.93
2019-05-20T16:43:38.067Z,8.83
2019-05-20T16:44:43.546Z,9.87
2019-05-20T16:45:48.472Z,10.33
2019-05-20T16:46:53.984Z,13.27
2019-05-20T16:47:59.102Z,13.63
2019-05-20T16:49:04.577Z,14.27
2019-05-20T16:50:10.207Z,7.13
2019-05-20T16:51:16.216Z,9.40
2019-05-20T16:52:21.140Z,8.83
2019-05-20T16:53:26.937Z,7.97
2019-05-20T16:54:32.032Z,10.63
2019-05-20T16:55:37.567Z,9.30
2019-05-20T16:56:42.624Z,10.03
2019-05-20T16:57:48.270Z,9.10
2019-05-20T16:58:53.298Z,10.07
2019-05-20T16:59:58.828Z,9.20
2019-05-20T17:01:03.898Z,8.23
2019-05-20T17:02:09.930Z,11.17
2019-05-20T17:03:14.957Z,8.17
2019-05-20T17:04:20.467Z,9.97
2019-05-20T17:05:25.595Z,15.33
2019-05-20T17:06:31.161Z,20.77
2019-05-20T17:07:36.108Z,22.93
2019-05-20T17:08:41.491Z,15.00
2019-05-20T17:09:46.289Z,9.97
2019-05-20T17:10:51.717Z,17.30
2019-05-20T17:11:56.520Z,16.43
2019-05-20T17:13:01.933Z,17.53
2019-05-20T17:14:09.989Z,20.53
2019-05-20T17:15:14.174Z,14.40
2019-05-20T17:16:19.018Z,12.43
2019-05-20T17:17:24.409Z,11.30
2019-05-20T17:18:29.367Z,14.17
2019-05-20T17:19:34.906Z,16.53
2019-05-20T17:20:39.879Z,13.33
2019-05-20T17:21:45.294Z,8.53
2019-05-20T17:22:50.268Z,10.30
2019-05-20T17:23:55.675Z,12.83
2019-05-20T17:25:00.553Z,11.53
2019-05-20T17:26:05.955Z,30.10
2019-05-20T17:27:11.071Z,16.07
2019-05-20T17:28:16.349Z,14.57
2019-05-20T17:29:21.139Z,15.63
2019-05-20T17:30:26.581Z,15.87
2019-05-20T17:31:31.504Z,15.10
2019-05-20T17:32:36.822Z,23.60
2019-05-20T17:33:41.786Z,12.47
2019-05-20T17:34:47.291Z,14.23
2019-05-20T17:35:52.201Z,16.47
2019-05-20T17:36:57.787Z,19.83
2019-05-20T17:38:02.776Z,13.33
2019-05-20T17:39:08.948Z,16.07
2019-05-20T17:40:14.695Z,17.90
2019-05-20T17:41:20.261Z,17.17
2019-05-20T17:42:25.050Z,21.50
2019-05-20T17:43:30.505Z,17.60
2019-05-20T17:44:35.302Z,19.93
2019-05-20T17:45:40.801Z,20.70
2019-05-20T17:46:45.598Z,15.00
2019-05-20T17:47:51.090Z,17.20
2019-05-20T17:48:55.861Z,17.70
2019-05-20T17:50:01.373Z,16.00
2019-05-20T17:51:06.316Z,18.67
2019-05-20T17:52:11.643Z,16.90
2019-05-20T17:53:16.508Z,17.73
2019-05-20T17:54:21.921Z,19.60
2019-05-20T17:55:26.885Z,17.83
2019-05-20T17:56:32.467Z,17.87
2019-05-20T17:57:37.551Z,19.10
2019-05-20T17:58:42.991Z,18.30
2019-05-20T17:59:47.820Z,17.97
2019-05-20T18:00:53.283Z,18.13
2019-05-20T18:01:58.218Z,16.83
2019-05-20T18:03:03.828Z,19.03
2019-05-20T18:04:08.669Z,23.17
2019-05-20T18:05:14.972Z,15.90
2019-05-20T18:06:20.183Z,16.27
2019-05-20T18:07:25.719Z,20.50
2019-05-20T18:08:32.507Z,16.50
2019-05-20T18:09:39.154Z,17.87
2019-05-20T18:10:44.268Z,16.93
2019-05-20T18:11:49.758Z,17.80
2019-05-20T18:12:54.733Z,18.30
2019-05-20T18:14:00.262Z,15.80
2019-05-20T18:15:05.661Z,17.70
2019-05-20T18:16:11.469Z,18.93
2019-05-20T18:17:16.403Z,16.57
2019-05-20T18:18:21.877Z,19.20
2019-05-20T18:19:26.836Z,14.90
2019-05-20T18:20:32.421Z,17.03
2019-05-20T18:21:37.499Z,17.73
2019-05-20T18:22:42.947Z,16.10
2019-05-20T18:23:47.834Z,17.80
2019-05-20T18:24:53.283Z,16.07
2019-05-20T18:25:58.257Z,17.60
2019-05-20T18:27:04.177Z,16.77
2019-05-20T18:28:09.091Z,17.60
2019-05-20T18:29:14.747Z,18.33
2019-05-20T18:30:19.786Z,18.20
2019-05-20T18:31:32.285Z,19.77
2019-05-20T18:32:31.877Z,18.13
2019-05-20T18:33:37.416Z,20.47
2019-05-20T18:34:42.501Z,17.77
2019-05-20T18:35:48.029Z,17.93
2019-05-20T18:36:52.865Z,17.80
2019-05-20T18:37:58.601Z,18.93
2019-05-20T18:39:04.628Z,16.97
2019-05-20T18:40:14.421Z,20.07
2019-05-20T18:41:17.381Z,17.20
2019-05-20T18:42:22.852Z,20.30
2019-05-20T18:43:27.741Z,15.67
2019-05-20T18:44:33.368Z,16.87
2019-05-20T18:45:38.698Z,14.70
2019-05-20T18:46:44.190Z,18.60
2019-05-20T18:47:49.256Z,15.00
2019-05-20T18:48:54.723Z,13.33
2019-05-20T18:49:59.590Z,16.43
2019-05-20T18:51:05.288Z,13.73
2019-05-20T18:52:10.303Z,12.73
2019-05-20T18:53:16.345Z,16.83
2019-05-20T18:54:21.599Z,16.50
2019-05-20T18:55:27.365Z,13.37
2019-05-20T18:56:32.453Z,19.73
2019-05-20T18:57:38.124Z,15.10
2019-05-20T18:58:43.053Z,15.13
2019-05-20T18:59:50.216Z,22.07
2019-05-20T19:00:55.468Z,14.40
2019-05-20T19:02:06.566Z,15.20
2019-05-20T19:03:12.234Z,14.63
2019-05-20T19:04:17.953Z,13.50
2019-05-20T19:05:23.237Z,16.00
2019-05-20T19:06:29.191Z,19.37
2019-05-20T19:07:34.073Z,12.57
2019-05-20T19:08:39.490Z,13.67
2019-05-20T19:09:44.477Z,15.07
2019-05-20T19:11:00.707Z,12.63
2019-05-20T19:12:11.688Z,12.10
2019-05-20T19:13:18.360Z,15.13
2019-05-20T19:14:24.906Z,14.80
2019-05-20T19:15:30.436Z,18.97
2019-05-20T19:16:35.397Z,16.37
2019-05-20T19:17:47.367Z,17.50
2019-05-20T19:18:55.124Z,17.47
2019-05-20T19:20:01.663Z,13.67
2019-05-20T19:21:06.717Z,17.03
2019-05-20T19:22:12.318Z,13.60
2019-05-20T19:23:17.513Z,16.30
2019-05-20T19:24:24.219Z,21.20
2019-05-20T19:25:37.765Z,23.40
2019-05-20T19:26:40.072Z,24.07
2019-05-20T19:27:49.593Z,23.97
2019-05-20T19:28:56.715Z,14.63
2019-05-20T19:30:05.475Z,16.03
2019-05-20T19:31:12.208Z,10.97
2019-05-20T19:32:18.743Z,16.30
2019-05-20T19:33:24.648Z,12.83
2019-05-20T19:34:35.621Z,16.50
2019-05-20T19:35:42.850Z,15.07
2019-05-20T19:36:48.032Z,15.27
2019-05-20T19:37:53.479Z,13.63
2019-05-20T19:38:58.529Z,12.97
2019-05-20T19:40:04.497Z,15.30
2019-05-20T19:41:18.667Z,12.57
2019-05-20T19:42:26.520Z,12.27
2019-05-20T19:43:31.606Z,11.87
2019-05-20T19:44:41.357Z,10.87
2019-05-20T19:45:46.652Z,10.10
2019-05-20T19:46:54.619Z,16.60
2019-05-20T19:48:00.362Z,9.50
2019-05-20T19:49:07.130Z,10.73
2019-05-20T19:50:14.523Z,11.53
2019-05-20T19:51:20.363Z,10.80
2019-05-20T19:52:27.122Z,11.77
2019-05-20T19:53:37.713Z,10.53
2019-05-20T19:54:44.122Z,13.23
2019-05-20T19:55:49.760Z,11.00
2019-05-20T19:56:54.784Z,19.67
2019-05-20T19:58:02.514Z,11.90
2019-05-20T19:59:10.466Z,11.93
2019-05-20T20:00:20.065Z,13.07
2019-05-20T20:01:25.964Z,13.47
2019-05-20T20:02:33.280Z,13.23
2019-05-20T20:03:38.511Z,15.33
2019-05-20T20:04:44.387Z,13.40
2019-05-20T20:05:51.178Z,14.07
2019-05-20T20:06:59.529Z,14.37
2019-05-20T20:08:07.381Z,16.87
2019-05-20T20:09:16.827Z,16.73
2019-05-20T20:10:22.305Z,17.83
2019-05-20T20:11:27.842Z,18.53
2019-05-20T20:12:35.838Z,18.40
2019-05-20T20:13:44.317Z,16.20
2019-05-20T20:14:51.605Z,16.57
2019-05-20T20:15:59.580Z,16.70
2019-05-20T20:17:04.849Z,16.93
2019-05-20T20:18:12.614Z,16.50
2019-05-20T20:19:18.590Z,17.33
2019-05-20T20:20:24.265Z,16.03
2019-05-20T20:21:29.273Z,16.50
2019-05-20T20:22:34.802Z,16.33
2019-05-20T20:23:40.088Z,18.03
2019-05-20T20:24:45.827Z,18.07
2019-05-20T20:25:50.952Z,19.30
2019-05-20T20:26:57.467Z,15.70
2019-05-20T20:28:02.688Z,18.83
2019-05-20T20:29:11.044Z,20.80
2019-05-20T20:30:15.221Z,15.07
2019-05-20T20:31:20.840Z,15.53
2019-05-20T20:32:37.474Z,15.77
2019-05-20T20:33:33.191Z,15.97
2019-05-20T20:34:38.272Z,16.43
2019-05-20T20:35:43.871Z,19.27
2019-05-20T20:36:49.264Z,19.90
2019-05-20T20:37:54.908Z,19.13
2019-05-20T20:39:00.169Z,17.53
2019-05-20T20:40:06.292Z,18.50
2019-05-20T20:41:11.562Z,16.30
2019-05-20T20:42:17.296Z,19.03
2019-05-20T20:43:22.575Z,18.27
2019-05-20T20:44:28.101Z,17.17
2019-05-20T20:45:32.912Z,17.83
2019-05-20T20:46:40.490Z,17.03
2019-05-20T20:47:45.235Z,15.33
2019-05-20T20:48:50.900Z,17.30
2019-05-20T20:49:55.863Z,22.57
2019-05-20T20:51:01.556Z,16.10
2019-05-20T20:52:06.543Z,20.50
2019-05-20T20:53:12.254Z,18.47
2019-05-20T20:54:17.285Z,17.53
2019-05-20T20:55:22.766Z,19.27
2019-05-20T20:56:28.351Z,18.13
2019-05-20T20:57:34.033Z,18.40
2019-05-20T20:58:39.126Z,16.73
2019-05-20T20:59:44.784Z,20.63
2019-05-20T21:00:49.972Z,19.27
2019-05-20T21:01:59.120Z,19.97
2019-05-20T21:03:02.399Z,21.33
2019-05-20T21:04:08.223Z,20.70
2019-05-20T21:05:13.653Z,16.93
2019-05-20T21:06:19.220Z,17.63
2019-05-20T21:07:24.139Z,25.07
2019-05-20T21:08:29.631Z,22.13
2019-05-20T21:09:34.621Z,22.53
2019-05-20T21:10:40.236Z,22.47
2019-05-20T21:11:45.242Z,20.90
2019-05-20T21:12:50.729Z,24.17
2019-05-20T21:13:55.744Z,23.83
2019-05-20T21:15:01.798Z,22.77
2019-05-20T21:16:06.888Z,20.20
2019-05-20T21:17:12.444Z,21.97
2019-05-20T21:18:17.456Z,20.83
2019-05-20T21:19:23.018Z,21.13
2019-05-20T21:20:28.103Z,22.07
2019-05-20T21:21:33.862Z,25.70
2019-05-20T21:22:38.893Z,21.90
2019-05-20T21:23:44.375Z,23.40
2019-05-20T21:24:49.284Z,20.80
2019-05-20T21:25:54.855Z,23.00
2019-05-20T21:26:59.853Z,22.10
2019-05-20T21:28:05.326Z,20.73
2019-05-20T21:29:10.589Z,18.50
2019-05-20T21:30:17.710Z,20.20
2019-05-20T21:31:22.616Z,22.93
2019-05-20T21:32:28.460Z,23.37
2019-05-20T21:33:33.414Z,24.77
2019-05-20T21:34:39.035Z,29.07
2019-05-20T21:35:45.456Z,26.80
2019-05-20T21:36:51.255Z,28.07
2019-05-20T21:37:56.129Z,29.23
2019-05-20T21:39:01.489Z,24.30
2019-05-20T21:40:06.796Z,27.53
2019-05-20T21:41:12.301Z,28.47
2019-05-20T21:42:17.138Z,29.87
2019-05-20T21:43:22.631Z,23.50
2019-05-20T21:44:27.568Z,28.27
2019-05-20T21:45:33.191Z,26.77
2019-05-20T21:46:38.135Z,27.83
2019-05-20T21:47:44.850Z,22.30
2019-05-20T21:48:49.853Z,22.17
2019-05-20T21:49:55.333Z,30.50
2019-05-20T21:51:00.232Z,25.03
2019-05-20T21:52:05.720Z,22.33
2019-05-20T21:53:10.532Z,21.20
2019-05-20T21:54:16.503Z,19.77
2019-05-20T21:55:21.593Z,22.80
2019-05-20T21:56:27.263Z,23.77
2019-05-20T21:57:32.254Z,23.73
2019-05-20T21:58:37.977Z,24.30
2019-05-20T21:59:42.836Z,24.17
2019-05-20T22:00:52.139Z,25.77
2019-05-20T22:01:57.065Z,23.00
2019-05-20T22:03:02.544Z,22.90
2019-05-20T22:04:07.581Z,17.97
2019-05-20T22:05:13.397Z,20.83
2019-05-20T22:06:18.685Z,17.97
2019-05-20T22:07:24.317Z,22.00
2019-05-20T22:08:29.312Z,18.13
2019-05-20T22:09:34.990Z,22.37
2019-05-20T22:10:39.987Z,19.37
2019-05-20T22:11:45.464Z,18.03
2019-05-20T22:12:50.720Z,19.47
2019-05-20T22:13:56.327Z,20.73
2019-05-20T22:15:01.116Z,18.20
2019-05-20T22:16:06.614Z,22.20
2019-05-20T22:17:11.523Z,18.87
2019-05-20T22:18:17.019Z,23.23
2019-05-20T22:19:21.785Z,21.50
2019-05-20T22:20:27.300Z,20.73
2019-05-20T22:21:38.133Z,23.00
2019-05-20T22:22:51.499Z,25.53
2019-05-20T22:24:01.572Z,20.47
2019-05-20T22:25:07.297Z,29.33
2019-05-20T22:26:12.232Z,24.47
2019-05-20T22:27:17.732Z,23.33
2019-05-20T22:28:22.564Z,21.10
2019-05-20T22:29:29.155Z,22.00
2019-05-20T22:30:34.072Z,26.83
2019-05-20T22:31:39.591Z,22.53
2019-05-20T22:32:44.653Z,23.70
2019-05-20T22:33:50.115Z,19.83
2019-05-20T22:34:55.055Z,16.77
2019-05-20T22:36:00.440Z,21.33
2019-05-20T22:37:05.374Z,20.27
2019-05-20T22:38:10.871Z,24.67
2019-05-20T22:39:15.756Z,23.50
2019-05-20T22:40:21.229Z,29.90
2019-05-20T22:41:26.146Z,28.97
2019-05-20T22:42:31.655Z,27.30
2019-05-20T22:43:36.643Z,29.67
2019-05-20T22:44:42.136Z,34.93
2019-05-20T22:45:47.092Z,36.97
2019-05-20T22:46:52.608Z,35.23
2019-05-20T22:47:57.565Z,37.80
2019-05-20T22:49:02.924Z,38.70
2019-05-20T22:50:07.922Z,38.67
2019-05-20T22:51:13.407Z,40.30
2019-05-20T22:52:18.455Z,38.93
2019-05-20T22:53:23.831Z,40.47
2019-05-20T22:54:28.807Z,44.43
2019-05-20T22:55:34.192Z,37.10
2019-05-20T22:56:39.187Z,31.00
2019-05-20T22:57:44.796Z,29.97
2019-05-20T22:58:49.800Z,32.13
2019-05-20T22:59:55.221Z,29.03
2019-05-20T23:01:00.183Z,31.53
2019-05-20T23:02:05.780Z,24.33
2019-05-20T23:03:10.561Z,28.77
2019-05-20T23:04:15.902Z,30.03
2019-05-20T23:05:20.850Z,26.53
2019-05-20T23:06:26.339Z,30.00
2019-05-20T23:07:31.292Z,36.73
2019-05-20T23:08:36.763Z,29.57
2019-05-20T23:09:41.689Z,26.93
2019-05-20T23:10:47.076Z,34.03
2019-05-20T23:11:51.884Z,28.27
2019-05-20T23:12:57.415Z,28.47
2019-05-20T23:14:02.563Z,27.17
2019-05-20T23:15:08.671Z,27.23
2019-05-20T23:16:13.576Z,32.60
2019-05-20T23:17:19.045Z,31.63
2019-05-20T23:18:24.020Z,27.90
2019-05-20T23:19:29.402Z,31.70
2019-05-20T23:20:34.189Z,29.20
2019-05-20T23:21:39.699Z,33.87
2019-05-20T23:22:44.637Z,27.50
2019-05-20T23:23:50.031Z,31.30
2019-05-20T23:24:54.915Z,35.33
2019-05-20T23:26:00.291Z,30.00
2019-05-20T23:27:05.309Z,33.57
2019-05-20T23:28:10.732Z,35.33
2019-05-20T23:29:15.619Z,37.40
2019-05-20T23:30:21.087Z,38.77
2019-05-20T23:31:26.056Z,37.50
2019-05-20T23:32:31.558Z,34.40
2019-05-20T23:33:36.363Z,30.70
2019-05-20T23:34:41.707Z,30.43
2019-05-20T23:35:46.719Z,27.17
2019-05-20T23:36:52.241Z,26.83
2019-05-20T23:37:57.093Z,33.20
2019-05-20T23:39:02.505Z,27.93
2019-05-20T23:40:07.937Z,30.57
2019-05-20T23:41:13.456Z,28.87
2019-05-20T23:42:18.241Z,29.60
2019-05-20T23:43:23.622Z,28.80
2019-05-20T23:44:28.504Z,30.00
2019-05-20T23:45:33.996Z,27.97
2019-05-20T23:46:38.896Z,27.77
2019-05-20T23:47:44.369Z,32.73
2019-05-20T23:48:49.297Z,28.87
2019-05-20T23:49:54.800Z,26.97
2019-05-20T23:50:59.590Z,30.97
2019-05-20T23:52:05.118Z,29.30
2019-05-20T23:53:10.051Z,27.10
2019-05-20T23:54:15.572Z,28.23
2019-05-20T23:55:20.599Z,25.40
2019-05-20T23:56:26.114Z,30.53
2019-05-20T23:57:30.860Z,26.43
2019-05-20T23:58:36.323Z,23.53
2019-05-20T23:59:41.279Z,29.47
